Salem, NH

11:31 PM EDT on April 18, 2015 (GMT -0400)
Salem Depot K1HRO | | Change Station
CLOSE
Current Station
Personal Weather Station
Location: Salem, NH
Elevation: 197 ft
Nearby Weather Stations

Elev 197 ft 42.79 °N, 71.23 °W | Updated 3 hours ago

Clear
Clear
49.7 °F
Feels Like 50 °F
N
0.4
Wind Variable Wind from ENE
Gusts 0.4 mph

Today
High -- | Low -- °F
--% Chance of Precip.
Yesterday
High -- | Low -- °F
Precip. -- in
5:59 AM 7:30 PM
New Moon, 0% visible
Pressure 30.08 in
Visibility 10.0 miles
Clouds Clear
Windchill 50 °F
Dew Point 37 °F
Humidity 61%
Rainfall 0.00 in
Snow Depth Not available.
UV 0 out of 12
Pollen 10.80 out of 12
Air Quality Not available.
Flu Activity Regional
METAR KLWM 190254Z 36004KT 10SM CLR 06/04 A3008 RMK AO2 SLP185 T00560044 51035

More Conditions Fewer Conditions

Pressure 30.08 in
Visibility 10.0 miles
Clouds Clear
Windchill 50 °F
Dew Point 37 °F
Humidity 61%
Rainfall 0.00 in
Snow Depth Not available.
UV 0 out of 12
Pollen 10.80 out of 12
Air Quality Not available.
Flu Activity Regional
METAR KLWM 190254Z 36004KT 10SM CLR 06/04 A3008 RMK AO2 SLP185 T00560044 51035

More Conditions Fewer Conditions

10-Day Weather Forecast

Almanac

Astronomy

Apr. 18, 2015 Rise Set
Actual Time
Civil Twilight
Nautical Twilight
Astronomical Twilight
Moon
Length of Visible Light
Length of Day
Tomorrow will be .
, % of the Moon is Illuminated

Today's Extremes

State Highs State Lows

Community

WunderPhotos

Upload Photos

1,814,706 photos uploaded!

WunderBlogs® & News

Nearby

Air Quality

  Air Quality AQ Index Pollutant
Not available.

Snow Depth

Station Depth Elevation

Earthquake Activity

City Distance Mag. Time & Date
Minimum magnitude displayed is 2.5.

Coastal Water Temperatures

Place Temperature

Stations

Nearby Weather Stations

Station Location Temp. Windchill Dew Point Humidity Wind Precip. Elev Updated Type